createdAt,value
2023-05-20T00:00:56.419Z,60.95
2023-05-20T00:03:25.378Z,60.90
2023-05-20T00:05:53.107Z,61.06
2023-05-20T00:08:20.574Z,61.67
2023-05-20T00:10:48.110Z,60.19
2023-05-20T00:13:15.660Z,60.93
2023-05-20T00:15:43.197Z,61.15
2023-05-20T00:18:10.757Z,61.32
2023-05-20T00:20:39.642Z,61.37
2023-05-20T00:23:07.133Z,61.49
2023-05-20T00:25:34.852Z,61.54
2023-05-20T00:28:02.542Z,62.08
2023-05-20T00:30:30.093Z,60.46
2023-05-20T00:32:57.596Z,59.83
2023-05-20T00:35:25.079Z,59.34
2023-05-20T00:37:53.935Z,59.56
2023-05-20T00:40:22.231Z,61.22
2023-05-20T00:42:49.706Z,60.07
2023-05-20T00:45:17.285Z,59.95
2023-05-20T00:47:45.143Z,59.66
2023-05-20T00:50:12.807Z,59.30
2023-05-20T00:52:41.544Z,60.54
2023-05-20T00:55:10.891Z,60.46
2023-05-20T00:57:38.371Z,60.12
2023-05-20T01:00:08.406Z,60.68
2023-05-20T01:02:35.925Z,60.47
2023-05-20T01:05:03.758Z,59.75
2023-05-20T01:07:31.861Z,60.17
2023-05-20T01:10:00.032Z,58.78
2023-05-20T01:12:32.707Z,58.44
2023-05-20T01:15:09.497Z,59.21
2023-05-20T01:17:40.358Z,58.54
2023-05-20T01:20:10.708Z,58.88
2023-05-20T01:22:40.098Z,58.39
2023-05-20T01:25:08.106Z,58.83
2023-05-20T01:27:35.787Z,58.58
2023-05-20T01:30:03.410Z,58.32
2023-05-20T01:32:35.711Z,57.92
2023-05-20T01:35:04.664Z,57.53
2023-05-20T01:37:33.207Z,57.16
2023-05-20T01:40:02.343Z,56.79
2023-05-20T01:42:30.214Z,56.95
2023-05-20T01:44:57.843Z,56.80
2023-05-20T01:47:25.653Z,57.19
2023-05-20T01:49:54.092Z,56.44
2023-05-20T01:52:22.679Z,56.43
2023-05-20T01:54:51.761Z,57.91
2023-05-20T01:57:22.068Z,57.94
2023-05-20T01:59:49.801Z,57.65
2023-05-20T02:02:17.835Z,57.93
2023-05-20T02:04:48.180Z,58.80
2023-05-20T02:07:15.830Z,58.43
2023-05-20T02:09:43.525Z,60.14
2023-05-20T02:12:16.361Z,58.74
2023-05-20T02:14:45.770Z,59.32
2023-05-20T02:17:14.504Z,58.20
2023-05-20T02:19:42.084Z,59.71
2023-05-20T02:22:09.599Z,59.59
2023-05-20T02:24:37.180Z,59.48
2023-05-20T02:27:06.173Z,59.16
2023-05-20T02:29:33.774Z,59.08
2023-05-20T02:32:02.647Z,59.87
2023-05-20T02:34:31.552Z,60.19
2023-05-20T02:36:59.245Z,60.63
2023-05-20T02:39:28.311Z,59.76
2023-05-20T02:41:56.212Z,61.08
2023-05-20T02:44:23.716Z,60.76
2023-05-20T02:46:51.368Z,60.68
2023-05-20T02:49:20.342Z,61.02
2023-05-20T02:51:47.826Z,61.56
2023-05-20T02:54:15.445Z,60.31
2023-05-20T02:56:43.006Z,60.22
2023-05-20T02:59:10.552Z,60.11
2023-05-20T03:01:38.132Z,59.87
2023-05-20T03:04:05.744Z,58.14
2023-05-20T03:06:34.877Z,59.44
2023-05-20T03:09:02.679Z,58.95
2023-05-20T03:11:30.162Z,58.93
2023-05-20T03:13:57.679Z,58.28
2023-05-20T03:16:25.415Z,59.42
2023-05-20T03:18:54.458Z,59.31
2023-05-20T03:21:23.779Z,59.45
2023-05-20T03:23:52.691Z,59.47
2023-05-20T03:26:21.684Z,58.78
2023-05-20T03:28:49.183Z,59.03
2023-05-20T03:31:17.554Z,59.50
2023-05-20T03:33:46.019Z,58.81
2023-05-20T03:36:13.569Z,58.03
2023-05-20T03:38:41.192Z,58.14
2023-05-20T03:41:10.096Z,58.58
2023-05-20T03:43:37.594Z,58.63
2023-05-20T03:46:05.148Z,59.58
2023-05-20T03:48:32.671Z,57.97
2023-05-20T03:51:01.807Z,58.62
2023-05-20T03:53:29.353Z,58.95
2023-05-20T03:55:56.833Z,58.94
2023-05-20T03:58:26.266Z,58.65
2023-05-20T04:00:53.798Z,59.52
2023-05-20T04:03:22.689Z,58.94
2023-05-20T04:05:50.416Z,58.96
2023-05-20T04:08:18.804Z,58.74
2023-05-20T04:10:47.006Z,57.52
2023-05-20T04:13:15.533Z,58.73
2023-05-20T04:15:44.421Z,57.46
2023-05-20T04:18:11.975Z,58.14
2023-05-20T04:20:41.322Z,57.16
2023-05-20T04:23:08.906Z,57.47
2023-05-20T04:25:36.956Z,56.67
2023-05-20T04:28:04.881Z,56.76
2023-05-20T04:30:33.392Z,56.92
2023-05-20T04:33:03.450Z,56.82
2023-05-20T04:35:31.449Z,58.69
2023-05-20T04:37:59.284Z,57.88
2023-05-20T04:40:27.354Z,59.09
2023-05-20T04:42:55.797Z,58.96
2023-05-20T04:45:23.903Z,58.54
2023-05-20T04:47:54.972Z,59.33
2023-05-20T04:50:23.873Z,57.91
2023-05-20T04:52:51.652Z,58.07
2023-05-20T04:55:21.452Z,58.06
2023-05-20T04:57:49.143Z,58.42
2023-05-20T05:00:16.931Z,58.14
2023-05-20T05:02:44.504Z,57.63
2023-05-20T05:05:12.090Z,58.63
2023-05-20T05:07:40.914Z,58.03
2023-05-20T05:10:09.474Z,57.89
2023-05-20T05:12:36.975Z,57.44
2023-05-20T05:15:05.070Z,57.25
2023-05-20T05:17:32.618Z,57.19
2023-05-20T05:20:00.237Z,57.99
2023-05-20T05:22:27.727Z,58.13
2023-05-20T05:24:56.644Z,57.92
2023-05-20T05:27:24.192Z,58.36
2023-05-20T05:29:51.680Z,58.45
2023-05-20T05:32:19.265Z,58.39
2023-05-20T05:34:46.888Z,58.45
2023-05-20T05:37:14.424Z,57.73
2023-05-20T05:39:41.954Z,57.44
2023-05-20T05:42:10.775Z,58.28
2023-05-20T05:44:38.347Z,57.27
2023-05-20T05:47:06.647Z,57.77
2023-05-20T05:49:34.940Z,57.01
2023-05-20T05:52:02.457Z,56.47
2023-05-20T05:54:30.222Z,56.63
2023-05-20T05:56:57.819Z,56.51
2023-05-20T05:59:26.706Z,56.22
2023-05-20T06:01:54.239Z,56.65
2023-05-20T06:04:21.929Z,55.67
2023-05-20T06:06:49.640Z,55.85
2023-05-20T06:09:17.156Z,55.87
2023-05-20T06:11:44.736Z,55.69
2023-05-20T06:14:12.337Z,55.47
2023-05-20T06:16:41.259Z,55.02
2023-05-20T06:19:09.327Z,54.68
2023-05-20T06:21:37.043Z,54.50
2023-05-20T06:24:04.862Z,54.35
2023-05-20T06:26:32.424Z,54.23
2023-05-20T06:28:59.942Z,54.10
2023-05-20T06:31:27.619Z,55.11
2023-05-20T06:33:56.998Z,54.89
2023-05-20T06:36:24.486Z,54.46
2023-05-20T06:38:51.980Z,54.39
2023-05-20T06:41:19.734Z,54.75
2023-05-20T06:43:47.931Z,54.81
2023-05-20T06:46:15.519Z,55.74
2023-05-20T06:48:43.113Z,55.41
2023-05-20T06:51:11.968Z,54.86
2023-05-20T06:53:39.458Z,54.73
2023-05-20T06:56:07.146Z,54.56
2023-05-20T06:58:34.692Z,54.39
2023-05-20T07:01:02.207Z,54.23
2023-05-20T07:03:29.807Z,54.61
2023-05-20T07:05:57.360Z,55.25
2023-05-20T07:08:26.318Z,54.65
2023-05-20T07:10:56.523Z,54.87
2023-05-20T07:13:24.212Z,55.11
2023-05-20T07:15:51.708Z,54.97
2023-05-20T07:18:19.448Z,54.80
2023-05-20T07:20:46.998Z,54.47
2023-05-20T07:23:15.750Z,54.92
2023-05-20T07:25:44.706Z,54.55
2023-05-20T07:28:12.218Z,54.56
2023-05-20T07:30:39.720Z,53.89
2023-05-20T07:33:07.369Z,54.12
2023-05-20T07:35:34.944Z,54.29
2023-05-20T07:38:02.633Z,53.99
2023-05-20T07:40:30.087Z,54.66
2023-05-20T07:42:59.064Z,54.78
2023-05-20T07:45:26.570Z,54.10
2023-05-20T07:47:54.189Z,54.23
2023-05-20T07:50:21.807Z,54.40
2023-05-20T07:52:56.627Z,54.14
2023-05-20T07:55:24.323Z,53.09
2023-05-20T07:57:51.917Z,52.89
2023-05-20T08:00:21.274Z,53.96
2023-05-20T08:02:48.822Z,52.16
2023-05-20T08:05:16.530Z,53.21
2023-05-20T08:07:44.042Z,52.76
2023-05-20T08:10:12.006Z,52.93
2023-05-20T08:12:39.526Z,52.83
2023-05-20T08:15:08.233Z,52.22
2023-05-20T08:17:38.607Z,52.62
2023-05-20T08:20:08.192Z,52.08
2023-05-20T08:22:36.042Z,52.41
2023-05-20T08:25:04.003Z,52.04
2023-05-20T08:27:31.528Z,52.37
2023-05-20T08:30:00.645Z,52.01
2023-05-20T08:32:28.743Z,51.99
2023-05-20T08:34:57.558Z,51.92
2023-05-20T08:37:25.038Z,51.92
2023-05-20T08:39:52.483Z,52.31
2023-05-20T08:42:23.566Z,52.06
2023-05-20T08:44:52.533Z,51.60
2023-05-20T08:47:21.677Z,52.18
2023-05-20T08:49:49.319Z,51.75
2023-05-20T08:52:22.077Z,51.49
2023-05-20T08:54:51.463Z,51.60
2023-05-20T08:57:20.281Z,51.44
2023-05-20T08:59:48.133Z,51.47
2023-05-20T09:02:16.147Z,51.94
2023-05-20T09:04:43.777Z,51.24
2023-05-20T09:07:11.348Z,50.95
2023-05-20T09:09:41.168Z,50.51
2023-05-20T09:12:08.774Z,51.30
2023-05-20T09:14:36.375Z,50.73
2023-05-20T09:17:05.619Z,51.09
2023-05-20T09:19:34.489Z,51.18
2023-05-20T09:22:05.039Z,50.57
2023-05-20T09:24:32.613Z,51.08
2023-05-20T09:27:01.622Z,51.39
2023-05-20T09:29:29.194Z,51.90
2023-05-20T09:31:57.405Z,51.84
2023-05-20T09:34:24.983Z,51.73
2023-05-20T09:36:53.179Z,51.39
2023-05-20T09:39:27.121Z,51.90
2023-05-20T09:41:58.625Z,51.78
2023-05-20T09:44:29.030Z,51.47
2023-05-20T09:46:57.892Z,51.19
2023-05-20T09:49:26.893Z,51.64
2023-05-20T09:51:54.734Z,51.19
2023-05-20T09:54:25.552Z,51.83
2023-05-20T09:56:54.314Z,52.27
2023-05-20T09:59:23.334Z,52.26
2023-05-20T10:01:52.200Z,52.47
2023-05-20T10:04:21.752Z,52.32
2023-05-20T10:07:03.249Z,52.04
2023-05-20T10:09:48.410Z,51.41
2023-05-20T10:12:26.771Z,52.05
2023-05-20T10:15:04.014Z,51.44
2023-05-20T10:17:42.625Z,52.49
2023-05-20T10:20:12.057Z,52.81
2023-05-20T10:22:40.578Z,51.68
2023-05-20T10:25:13.921Z,51.35
2023-05-20T10:27:46.322Z,51.72
2023-05-20T10:30:17.492Z,50.99
2023-05-20T10:32:54.462Z,51.62
2023-05-20T10:35:26.222Z,51.49
2023-05-20T10:37:54.827Z,50.54
2023-05-20T10:40:23.342Z,50.66
2023-05-20T10:42:50.843Z,51.53
2023-05-20T10:45:28.924Z,50.96
2023-05-20T10:47:59.185Z,51.43
2023-05-20T10:50:31.394Z,51.16
2023-05-20T10:53:05.842Z,52.29
2023-05-20T10:55:39.222Z,51.38
2023-05-20T10:58:07.643Z,50.97
2023-05-20T11:00:37.345Z,50.51
2023-05-20T11:03:08.272Z,50.50
2023-05-20T11:05:36.980Z,49.72
2023-05-20T11:08:13.673Z,50.06
2023-05-20T11:10:52.069Z,49.89
2023-05-20T11:13:19.686Z,50.52
2023-05-20T11:15:49.749Z,50.00
2023-05-20T11:18:19.065Z,49.87
2023-05-20T11:20:47.693Z,51.02
2023-05-20T11:23:16.321Z,50.10
2023-05-20T11:25:43.947Z,49.92
2023-05-20T11:28:14.021Z,49.61
2023-05-20T11:30:42.206Z,48.98
2023-05-20T11:33:13.684Z,49.48
2023-05-20T11:35:46.996Z,49.16
2023-05-20T11:38:15.006Z,49.24
2023-05-20T11:40:51.142Z,49.14
2023-05-20T11:43:20.040Z,49.18
2023-05-20T11:45:49.645Z,49.23
2023-05-20T11:48:17.218Z,49.22
2023-05-20T11:50:47.740Z,49.11
2023-05-20T11:53:16.491Z,49.95
2023-05-20T11:55:49.426Z,49.38
2023-05-20T11:58:17.570Z,48.65
2023-05-20T12:00:52.875Z,48.33
2023-05-20T12:03:25.234Z,47.77
2023-05-20T12:05:54.456Z,47.89
2023-05-20T12:08:22.565Z,48.12
2023-05-20T12:10:50.150Z,47.95
2023-05-20T12:13:19.180Z,47.71
2023-05-20T12:15:46.740Z,48.18
2023-05-20T12:18:14.271Z,48.20
2023-05-20T12:20:41.787Z,48.75
2023-05-20T12:23:10.626Z,47.71
2023-05-20T12:25:38.089Z,48.12
2023-05-20T12:28:06.715Z,48.04
2023-05-20T12:30:34.456Z,47.77
2023-05-20T12:33:02.445Z,48.10
2023-05-20T12:35:38.294Z,48.42
2023-05-20T12:38:06.022Z,48.47
2023-05-20T12:40:35.875Z,48.16
2023-05-20T12:43:05.873Z,48.07
2023-05-20T12:45:33.421Z,48.58
2023-05-20T12:48:01.257Z,48.62
2023-05-20T12:50:29.319Z,48.82
2023-05-20T12:52:56.861Z,48.62
2023-05-20T12:55:24.445Z,48.23
2023-05-20T12:57:53.544Z,48.52
2023-05-20T13:00:21.052Z,47.97
2023-05-20T13:02:48.757Z,48.11
2023-05-20T13:05:16.337Z,48.17
2023-05-20T13:07:43.831Z,48.56
2023-05-20T13:10:11.999Z,48.17
2023-05-20T13:12:39.589Z,48.55
2023-05-20T13:15:09.667Z,49.97
2023-05-20T13:17:38.102Z,49.84
2023-05-20T13:20:06.540Z,49.46
2023-05-20T13:22:34.109Z,48.91
2023-05-20T13:25:01.753Z,49.79
2023-05-20T13:27:29.270Z,49.09
2023-05-20T13:29:56.769Z,48.79
2023-05-20T13:32:25.717Z,48.74
2023-05-20T13:34:53.322Z,48.91
2023-05-20T13:37:20.918Z,49.24
2023-05-20T13:39:49.440Z,48.83
2023-05-20T13:42:16.915Z,48.59
2023-05-20T13:44:44.439Z,48.04
2023-05-20T13:47:12.033Z,47.52
2023-05-20T13:49:40.895Z,48.07
2023-05-20T13:52:08.390Z,48.31
2023-05-20T13:54:35.936Z,48.55
2023-05-20T13:57:07.711Z,48.05
2023-05-20T13:59:35.695Z,47.95
2023-05-20T14:02:03.328Z,48.06
2023-05-20T14:04:31.513Z,47.88
2023-05-20T14:07:00.458Z,48.29
2023-05-20T14:09:27.962Z,48.22
2023-05-20T14:11:55.606Z,47.96
2023-05-20T14:14:23.264Z,47.88
2023-05-20T14:16:50.815Z,47.80
2023-05-20T14:19:18.424Z,47.50
2023-05-20T14:21:45.966Z,46.88
2023-05-20T14:24:14.852Z,47.25
2023-05-20T14:26:42.379Z,47.75
2023-05-20T14:29:10.044Z,47.09
2023-05-20T14:31:38.565Z,46.93
2023-05-20T14:34:06.132Z,47.09
2023-05-20T14:36:33.716Z,47.21
2023-05-20T14:39:01.239Z,47.62
2023-05-20T14:41:30.102Z,47.81
2023-05-20T14:43:57.719Z,47.57
2023-05-20T14:46:25.498Z,47.92
2023-05-20T14:48:53.060Z,48.34
2023-05-20T14:51:20.612Z,48.24
2023-05-20T14:53:48.142Z,48.16
2023-05-20T14:56:15.731Z,48.59
2023-05-20T14:58:44.598Z,48.40
2023-05-20T15:01:12.229Z,48.64
2023-05-20T15:03:39.836Z,49.16
2023-05-20T15:06:07.678Z,48.86
2023-05-20T15:08:35.137Z,49.01
2023-05-20T15:11:02.613Z,48.64
2023-05-20T15:13:30.116Z,48.85
2023-05-20T15:15:58.977Z,49.85
2023-05-20T15:18:26.514Z,49.45
2023-05-20T15:20:53.996Z,49.29
2023-05-20T15:23:21.531Z,49.44
2023-05-20T15:25:50.221Z,49.63
2023-05-20T15:28:19.520Z,49.84
2023-05-20T15:30:47.458Z,50.25
2023-05-20T15:33:16.377Z,50.45
2023-05-20T15:35:45.796Z,50.12
2023-05-20T15:38:13.346Z,50.46
2023-05-20T15:40:41.347Z,50.25
2023-05-20T15:43:09.089Z,50.17
2023-05-20T15:45:36.754Z,50.50
2023-05-20T15:48:04.587Z,50.96
2023-05-20T15:50:33.655Z,50.71
2023-05-20T15:53:01.475Z,50.33
2023-05-20T15:55:29.003Z,50.86
2023-05-20T15:57:56.523Z,50.39
2023-05-20T16:00:24.693Z,50.60
2023-05-20T16:02:54.013Z,50.91
2023-05-20T16:05:24.519Z,50.73
2023-05-20T16:07:53.707Z,50.32
2023-05-20T16:10:22.439Z,51.25
2023-05-20T16:12:51.513Z,51.04
2023-05-20T16:15:19.196Z,51.08
2023-05-20T16:17:46.671Z,51.00
2023-05-20T16:20:14.427Z,51.46
2023-05-20T16:22:41.909Z,51.74
2023-05-20T16:25:11.768Z,52.17
2023-05-20T16:27:39.357Z,51.85
2023-05-20T16:30:08.909Z,51.26
2023-05-20T16:32:36.434Z,51.95
2023-05-20T16:35:04.773Z,51.53
2023-05-20T16:37:32.317Z,51.92
2023-05-20T16:39:59.791Z,51.88
2023-05-20T16:42:28.619Z,51.33
2023-05-20T16:44:56.156Z,51.42
2023-05-20T16:47:23.665Z,51.77
2023-05-20T16:49:51.161Z,51.71
2023-05-20T16:52:18.703Z,51.90
2023-05-20T16:54:46.553Z,52.32
2023-05-20T16:57:15.878Z,51.65
2023-05-20T16:59:44.809Z,51.76
2023-05-20T17:02:12.364Z,51.53
2023-05-20T17:04:39.999Z,52.31
2023-05-20T17:07:09.708Z,52.44
2023-05-20T17:09:37.492Z,52.44
2023-05-20T17:12:05.581Z,52.11
2023-05-20T17:14:33.388Z,51.80
2023-05-20T17:17:02.264Z,52.06
2023-05-20T17:19:29.903Z,52.46
2023-05-20T17:21:57.400Z,51.89
2023-05-20T17:24:24.869Z,52.42
2023-05-20T17:26:52.366Z,52.57
2023-05-20T17:29:19.878Z,52.52
2023-05-20T17:31:47.619Z,52.54
2023-05-20T17:34:16.624Z,52.40
2023-05-20T17:36:44.278Z,52.61
2023-05-20T17:39:12.238Z,52.67
2023-05-20T17:41:40.931Z,52.53
2023-05-20T17:44:09.875Z,52.57
2023-05-20T17:46:37.498Z,52.44
2023-05-20T17:49:05.065Z,52.97
2023-05-20T17:51:34.162Z,52.82
2023-05-20T17:54:01.800Z,52.99
2023-05-20T17:56:29.412Z,53.35
2023-05-20T17:58:56.890Z,52.88
2023-05-20T18:01:24.474Z,53.36
2023-05-20T18:03:52.161Z,52.77
2023-05-20T18:06:19.766Z,53.01
2023-05-20T18:08:48.687Z,53.60
2023-05-20T18:11:16.235Z,54.21
2023-05-20T18:13:43.751Z,54.13
2023-05-20T18:16:11.341Z,53.48
2023-05-20T18:18:38.920Z,53.93
2023-05-20T18:21:07.707Z,53.87
2023-05-20T18:23:35.389Z,53.99
2023-05-20T18:26:06.937Z,53.49
2023-05-20T18:28:34.630Z,53.84
2023-05-20T18:31:02.216Z,53.73
2023-05-20T18:33:29.703Z,53.83
2023-05-20T18:35:57.217Z,54.50
2023-05-20T18:38:24.759Z,54.92
2023-05-20T18:40:52.308Z,54.88
2023-05-20T18:43:21.164Z,54.92
2023-05-20T18:45:48.662Z,54.73
2023-05-20T18:48:25.595Z,55.20
2023-05-20T18:50:54.421Z,55.37
2023-05-20T18:53:22.085Z,54.96
2023-05-20T18:55:49.585Z,54.94
2023-05-20T18:58:17.509Z,55.12
2023-05-20T19:00:46.567Z,55.53
2023-05-20T19:03:14.118Z,55.13
2023-05-20T19:05:41.715Z,55.90
2023-05-20T19:08:09.312Z,56.14
2023-05-20T19:10:36.826Z,55.84
2023-05-20T19:13:04.337Z,56.28
2023-05-20T19:15:31.903Z,55.62
2023-05-20T19:18:01.355Z,56.25
2023-05-20T19:20:28.833Z,56.39
2023-05-20T19:22:56.418Z,56.76
2023-05-20T19:25:23.895Z,56.66
2023-05-20T19:27:51.491Z,57.01
2023-05-20T19:30:18.973Z,57.27
2023-05-20T19:32:46.469Z,56.78
2023-05-20T19:35:16.326Z,56.59
2023-05-20T19:37:43.821Z,56.90
2023-05-20T19:40:12.694Z,58.18
2023-05-20T19:42:40.215Z,58.17
2023-05-20T19:45:08.923Z,57.63
2023-05-20T19:47:37.109Z,58.29
2023-05-20T19:50:05.238Z,58.57
2023-05-20T19:52:34.032Z,59.05
2023-05-20T19:55:01.772Z,59.26
2023-05-20T19:57:29.260Z,58.93
2023-05-20T19:59:56.756Z,59.42
2023-05-20T20:02:24.279Z,59.98
2023-05-20T20:04:51.884Z,59.53
2023-05-20T20:07:19.390Z,59.98
2023-05-20T20:09:51.353Z,59.43
2023-05-20T20:12:18.903Z,61.42
2023-05-20T20:14:46.485Z,61.44
2023-05-20T20:17:15.622Z,61.69
2023-05-20T20:19:45.961Z,61.37
2023-05-20T20:22:13.546Z,61.54
2023-05-20T20:24:41.123Z,60.86
2023-05-20T20:27:10.495Z,61.32
2023-05-20T20:29:37.993Z,61.56
2023-05-20T20:32:06.394Z,62.25
2023-05-20T20:34:33.959Z,62.98
2023-05-20T20:37:01.859Z,62.61
2023-05-20T20:39:29.688Z,61.68
2023-05-20T20:41:58.862Z,62.31
2023-05-20T20:44:28.986Z,61.39
2023-05-20T20:46:58.159Z,62.23
2023-05-20T20:49:27.649Z,62.13
2023-05-20T20:51:56.036Z,63.18
2023-05-20T20:54:23.543Z,63.12
2023-05-20T20:56:51.811Z,63.50
2023-05-20T20:59:21.901Z,63.76
2023-05-20T21:01:52.657Z,64.36
2023-05-20T21:04:20.246Z,65.56
2023-05-20T21:06:47.769Z,65.58
2023-05-20T21:09:16.132Z,66.46
2023-05-20T21:11:45.175Z,65.94
2023-05-20T21:14:13.579Z,66.81
2023-05-20T21:16:42.009Z,66.52
2023-05-20T21:19:11.057Z,64.84
2023-05-20T21:21:38.592Z,64.71
2023-05-20T21:24:06.596Z,64.54
2023-05-20T21:26:34.151Z,65.34
2023-05-20T21:29:01.661Z,65.23
2023-05-20T21:31:29.280Z,65.29
2023-05-20T21:33:56.839Z,65.36
2023-05-20T21:36:25.726Z,65.54
2023-05-20T21:38:53.231Z,65.62
2023-05-20T21:41:21.358Z,65.93
2023-05-20T21:43:48.857Z,65.87
2023-05-20T21:46:16.395Z,66.25
2023-05-20T21:48:44.117Z,65.58
2023-05-20T21:51:11.772Z,65.00
2023-05-20T21:53:40.618Z,63.95
2023-05-20T21:56:08.293Z,63.76
2023-05-20T21:58:40.616Z,63.79
2023-05-20T22:01:09.456Z,63.48
2023-05-20T22:03:38.174Z,63.96
2023-05-20T22:06:06.401Z,64.10
2023-05-20T22:08:34.623Z,64.14
2023-05-20T22:11:05.359Z,63.56
2023-05-20T22:13:33.841Z,63.62
2023-05-20T22:16:01.912Z,63.25
2023-05-20T22:18:29.918Z,63.62
2023-05-20T22:20:59.108Z,63.67
2023-05-20T22:23:26.956Z,62.65
2023-05-20T22:25:54.954Z,62.57
2023-05-20T22:28:26.069Z,62.97
2023-05-20T22:30:53.568Z,62.87
2023-05-20T22:33:22.612Z,62.53
2023-05-20T22:35:50.172Z,63.55
2023-05-20T22:38:17.716Z,64.18
2023-05-20T22:40:45.294Z,63.39
2023-05-20T22:43:13.855Z,63.83
2023-05-20T22:45:42.844Z,64.15
2023-05-20T22:48:10.459Z,63.29
2023-05-20T22:50:38.014Z,63.43
2023-05-20T22:53:05.915Z,63.64
2023-05-20T22:55:33.733Z,63.66
2023-05-20T22:58:01.472Z,63.94
2023-05-20T23:00:29.489Z,64.17
2023-05-20T23:02:58.549Z,64.66
2023-05-20T23:05:26.349Z,64.72
2023-05-20T23:07:54.806Z,65.65
2023-05-20T23:10:22.545Z,66.27
2023-05-20T23:12:50.139Z,66.78
2023-05-20T23:15:19.184Z,66.84
2023-05-20T23:17:46.727Z,67.08
2023-05-20T23:20:18.983Z,67.51
2023-05-20T23:22:46.523Z,66.47
2023-05-20T23:25:14.047Z,67.35
2023-05-20T23:27:41.645Z,68.79
2023-05-20T23:30:10.481Z,68.16
2023-05-20T23:32:38.090Z,68.01
2023-05-20T23:35:06.634Z,68.35
2023-05-20T23:37:35.595Z,68.97
2023-05-20T23:40:04.712Z,69.16
2023-05-20T23:42:32.453Z,68.51
2023-05-20T23:44:59.958Z,68.14
2023-05-20T23:47:29.784Z,68.95
2023-05-20T23:49:57.392Z,70.27
2023-05-20T23:52:25.080Z,70.87
2023-05-20T23:54:54.049Z,70.41
2023-05-20T23:57:21.841Z,69.79
2023-05-20T23:59:49.611Z,68.51
